Terminal Aerodrome Forecast
Issued by NWS Buffalo, NY

Home | Current Version | Previous Version | Text Only | Print | Product List | Glossary On
Versions: 1 2 3 4 5 6 7 8 9 10 11 12 13 14 15 16 17 18 19 20 21 22 23 24 25 26 27 28 29 30
000
FTUS41 KBUF 022300 RRA
TAFART
TAF
KART 022345Z 0300/0324 28004KT P6SM OVC045
     FM030200 24004KT P6SM BKN050 OVC090
     FM030400 23005KT P6SM BKN090 OVC150
     FM030600 25007KT P6SM BKN150 BKN250
     FM031600 23010KT P6SM SCT045 BKN250
     FM032300 20007KT P6SM FEW040 FEW250=

USA.gov is the U.S. government's official web portal to all federal, state and local government web resources and services.